Time;durP1;ratioP1;P1;durP2;ratioP2;P2;SDS_P1;SDS_P2;PMS_P1;PMS_P2;Temp;Humidity;BMP_temperature;BMP_pressure;BME280_temperature;BME280_humidity;BME280_pressure;Samples;Min_cycle;Max_cycle;Signal;HPM_P1;HPM_P2
2022/12/08 00:01:02;;;;;;;4.55;2.55;;;;;;;3.19;100.00;100307.53;5086666;28;20051;-74
2022/12/08 00:03:28;;;;;;;4.85;2.28;;;;;;;3.17;100.00;100309.38;5088410;28;20031;-74
2022/12/08 00:11:21;;;;;;;5.20;3.15;;;;;;;3.18;100.00;100297.34;5084666;28;20071;-73
2022/12/08 00:13:46;;;;;;;5.03;2.95;;;;;;;3.27;100.00;100292.41;5084385;28;20078;-74
2022/12/08 00:16:12;;;;;;;5.40;3.00;;;;;;;3.33;100.00;100291.16;5095249;28;20440;-73
2022/12/08 00:18:37;;;;;;;5.10;3.13;;;;;;;3.33;100.00;100281.66;5080247;28;20137;-74
2022/12/08 00:21:03;;;;;;;4.63;2.50;;;;;;;3.49;100.00;100278.91;5086481;28;20040;-74
2022/12/08 00:23:29;;;;;;;5.75;3.13;;;;;;;4.11;100.00;100280.66;5088048;28;20142;-73
2022/12/08 00:25:54;;;;;;;5.68;3.45;;;;;;;4.41;100.00;100280.22;5085630;28;20779;-74
2022/12/08 00:28:20;;;;;;;4.70;2.72;;;;;;;4.29;100.00;100285.31;5083400;28;20512;-73
2022/12/08 00:30:45;;;;;;;3.75;2.70;;;;;;;4.17;100.00;100282.81;5084689;28;20059;-74
2022/12/08 00:33:12;;;;;;;3.30;2.28;;;;;;;4.13;100.00;100284.78;5086205;28;20020;-73
2022/12/08 00:35:37;;;;;;;4.25;2.67;;;;;;;4.10;100.00;100286.72;5083276;28;20097;-74
2022/12/08 00:38:03;;;;;;;4.15;1.80;;;;;;;4.11;100.00;100280.66;5084318;28;20016;-74
2022/12/08 00:40:29;;;;;;;2.75;1.70;;;;;;;4.10;100.00;100276.41;5088111;28;20032;-74
2022/12/08 00:42:55;;;;;;;3.42;2.20;;;;;;;4.10;100.00;100286.72;5088319;28;20086;-74
2022/12/08 00:45:20;;;;;;;5.63;1.45;;;;;;;4.07;100.00;100285.19;5089107;28;20039;-74
2022/12/08 00:47:45;;;;;;;3.13;1.83;;;;;;;4.04;100.00;100285.41;5089664;28;20430;-74
2022/12/08 00:50:11;;;;;;;3.03;1.90;;;;;;;4.03;100.00;100280.34;5084272;28;20024;-74
2022/12/08 00:52:36;;;;;;;3.88;2.17;;;;;;;4.02;100.00;100289.84;5084652;28;20464;-74
2022/12/08 00:55:03;;;;;;;2.72;1.88;;;;;;;4.04;100.00;100287.97;5089576;28;20459;-74
2022/12/08 00:57:29;;;;;;;3.22;2.00;;;;;;;4.04;100.00;100294.91;5085637;28;20131;-74
2022/12/08 00:59:54;;;;;;;3.72;1.90;;;;;;;4.03;100.00;100296.66;5085329;28;20542;-74
2022/12/08 01:02:20;;;;;;;3.30;1.77;;;;;;;4.04;100.00;100298.28;5087796;28;20028;-74
2022/12/08 01:04:45;;;;;;;3.63;1.88;;;;;;;4.06;100.00;100301.59;5089629;28;20028;-74
2022/12/08 01:07:11;;;;;;;2.92;1.80;;;;;;;4.08;100.00;100297.16;5089402;28;20058;-74
2022/12/08 01:09:36;;;;;;;2.78;1.60;;;;;;;4.09;100.00;100300.56;5082147;28;20407;-75
2022/12/08 01:12:02;;;;;;;3.17;1.77;;;;;;;4.11;100.00;100304.69;5086452;28;20521;-74
2022/12/08 01:14:27;;;;;;;4.43;2.40;;;;;;;4.14;100.00;100295.91;5087382;28;20043;-74
2022/12/08 01:16:53;;;;;;;2.78;1.83;;;;;;;4.43;100.00;100286.91;5089468;28;20039;-73
2022/12/08 01:19:18;;;;;;;3.15;1.70;;;;;;;4.73;100.00;100291.63;5087735;28;20075;-74
2022/12/08 01:21:44;;;;;;;2.67;1.67;;;;;;;4.68;100.00;100287.75;5087939;28;20020;-74
2022/12/08 01:24:12;;;;;;;3.88;2.25;;;;;;;4.60;100.00;100293.47;5089390;28;20024;-74
2022/12/08 01:26:37;;;;;;;5.03;2.05;;;;;;;4.51;100.00;100283.78;5081404;28;20391;-74
2022/12/08 01:29:03;;;;;;;3.22;1.80;;;;;;;4.46;100.00;100280.72;5092281;28;20024;-74
2022/12/08 01:31:28;;;;;;;3.85;1.73;;;;;;;4.45;100.00;100281.66;5084878;28;20046;-74
2022/12/08 01:33:53;;;;;;;3.63;1.63;;;;;;;4.45;100.00;100273.91;5088379;28;20032;-74
2022/12/08 01:36:24;;;;;;;2.75;1.65;;;;;;;4.46;100.00;100272.97;5086570;28;20023;-74
2022/12/08 01:38:51;;;;;;;2.75;2.13;;;;;;;4.44;100.00;100267.09;5091222;28;20060;-74
2022/12/08 01:41:24;;;;;;;3.70;2.17;;;;;;;4.42;100.00;100261.22;5091647;28;20068;-74
2022/12/08 01:43:57;;;;;;;3.17;1.77;;;;;;;4.43;100.00;100260.28;5085433;28;20028;-74
2022/12/08 01:46:24;;;;;;;2.50;1.45;;;;;;;4.45;100.00;100264.41;5088904;28;20051;-74
2022/12/08 01:48:54;;;;;;;3.47;2.03;;;;;;;4.49;100.00;100265.84;5089200;28;20176;-74
2022/12/08 01:51:19;;;;;;;3.63;1.40;;;;;;;4.52;100.00;100267.38;5091590;28;20035;-74
2022/12/08 01:53:46;;;;;;;5.68;2.28;;;;;;;4.52;100.00;100263.03;5085080;28;20386;-74
2022/12/08 01:56:18;;;;;;;2.83;1.92;;;;;;;4.49;100.00;100254.69;5087278;28;20031;-73
2022/12/08 01:58:48;;;;;;;2.58;1.75;;;;;;;4.49;100.00;100255.53;5083685;28;20031;-73
2022/12/08 02:01:14;;;;;;;2.85;1.60;;;;;;;4.49;100.00;100258.09;5090613;28;20032;-74
2022/12/08 02:03:44;;;;;;;2.75;1.52;;;;;;;4.52;100.00;100242.41;5084565;28;20024;-74
2022/12/08 02:06:10;;;;;;;2.55;1.52;;;;;;;4.52;100.00;100246.75;5092227;28;20028;-74
2022/12/08 02:08:39;;;;;;;2.08;1.23;;;;;;;4.52;100.00;100246.75;5091625;28;20132;-74
2022/12/08 02:11:07;;;;;;;2.30;1.30;;;;;;;4.54;100.00;100240.53;5089589;28;20050;-74
2022/12/08 02:13:33;;;;;;;2.42;1.80;;;;;;;4.56;100.00;100233.50;5082643;28;20047;-74
2022/12/08 02:16:19;;;;;;;2.67;1.52;;;;;;;4.56;100.00;100227.53;5088878;28;20028;-74
2022/12/08 02:18:45;;;;;;;;;;;;;;;4.54;100.00;100229.38;5081429;28;20028;-74
2022/12/08 02:21:15;;;;;;;2.23;1.40;;;;;;;4.54;100.00;100231.97;5089025;28;19919;-74
2022/12/08 02:24:06;;;;;;;3.30;1.67;;;;;;;4.54;100.00;100224.22;5089345;28;20031;-74
2022/12/08 02:26:53;;;;;;;3.03;1.63;;;;;;;4.54;100.00;100222.47;5087411;28;20039;-74
2022/12/08 02:29:44;;;;;;;2.42;1.50;;;;;;;4.56;100.00;100222.38;5083477;28;20032;-74
2022/12/08 02:32:47;;;;;;;3.42;1.88;;;;;;;4.54;100.00;100217.31;5080577;28;20396;-74
2022/12/08 02:35:39;;;;;;;1.95;1.67;;;;;;;4.52;100.00;100211.44;5084403;28;20044;-74
2022/12/08 02:38:23;;;;;;;3.38;2.08;;;;;;;4.54;100.00;100214.72;5086557;28;20084;-74
2022/12/08 02:40:56;;;;;;;2.67;2.00;;;;;;;4.55;100.00;100206.06;5083204;28;20024;-74
2022/12/08 02:43:33;;;;;;;2.38;1.98;;;;;;;4.56;100.00;100207.69;5084234;28;20115;-74
2022/12/08 02:46:04;;;;;;;3.15;1.83;;;;;;;4.57;100.00;100203.38;5088414;28;20081;-74
2022/12/08 02:48:32;;;;;;;2.92;2.13;;;;;;;4.56;100.00;100202.53;5090001;28;20056;-74
2022/12/08 02:50:57;;;;;;;5.57;2.13;;;;;;;4.56;100.00;100202.53;5090594;28;20397;-74
2022/12/08 02:53:23;;;;;;;2.63;1.85;;;;;;;4.56;100.00;100201.72;5084713;28;20060;-74
2022/12/08 02:55:57;;;;;;;3.15;2.25;;;;;;;4.56;100.00;100201.72;5090277;28;20036;-74
2022/12/08 02:58:41;;;;;;;3.80;2.78;;;;;;;4.57;100.00;100198.22;5090925;28;20039;-74
2022/12/08 03:01:15;;;;;;;4.13;2.63;;;;;;;4.59;100.00;100201.50;5088783;28;20040;-74
2022/12/08 03:03:44;;;;;;;3.05;2.30;;;;;;;4.56;100.00;100191.41;5086776;28;20050;-74
2022/12/08 03:06:31;;;;;;;3.85;2.80;;;;;;;4.54;100.00;100203.59;5090190;28;20024;-74
2022/12/08 03:09:02;;;;;;;4.20;3.30;;;;;;;4.57;100.00;100195.63;5091020;28;20035;-74
2022/12/08 03:11:39;;;;;;;3.83;2.60;;;;;;;4.63;100.00;100193.41;5087004;28;20454;-73
2022/12/08 03:14:09;;;;;;;3.47;2.92;;;;;;;4.66;100.00;100182.88;5085584;28;20428;-73
2022/12/08 03:16:37;;;;;;;3.78;2.70;;;;;;;4.65;100.00;100170.09;5087649;28;20027;-74
2022/12/08 03:19:13;;;;;;;4.50;2.90;;;;;;;4.63;100.00;100161.63;5091188;28;20039;-73
2022/12/08 03:21:42;;;;;;;3.90;2.33;;;;;;;4.79;100.00;100154.38;5085109;28;20058;-74
2022/12/08 03:24:09;;;;;;;3.00;2.58;;;;;;;4.93;100.00;100161.91;5081465;28;20093;-73
2022/12/08 03:26:48;;;;;;;3.40;2.30;;;;;;;4.91;100.00;100171.53;5086032;28;20406;-73
2022/12/08 03:29:14;;;;;;;3.75;2.47;;;;;;;4.86;100.00;100173.63;5085291;28;20032;-74
2022/12/08 03:31:48;;;;;;;5.32;3.28;;;;;;;4.84;100.00;100175.50;5086265;28;20036;-73
2022/12/08 03:34:15;;;;;;;5.15;2.47;;;;;;;4.83;100.00;100165.28;5085663;28;20093;-74
2022/12/08 03:36:42;;;;;;;6.68;3.47;;;;;;;4.81;100.00;100167.97;5080319;28;20028;-73
2022/12/08 03:39:07;;;;;;;4.55;3.15;;;;;;;4.79;100.00;100172.44;5083289;28;20032;-73
2022/12/08 03:41:33;;;;;;;4.85;2.97;;;;;;;4.78;100.00;100169.97;5083057;28;20039;-73
2022/12/08 03:43:58;;;;;;;3.08;2.58;;;;;;;4.76;100.00;100167.50;5082049;28;20032;-74
2022/12/08 03:46:26;;;;;;;3.67;2.97;;;;;;;4.76;100.00;100162.34;5087637;28;20028;-73
2022/12/08 03:48:52;;;;;;;3.83;2.80;;;;;;;4.77;100.00;100168.31;5087378;28;20479;-73
2022/12/08 03:51:18;;;;;;;4.07;3.17;;;;;;;4.77;100.00;100168.31;5081618;28;20081;-73
2022/12/08 03:53:44;;;;;;;3.58;2.38;;;;;;;4.76;100.00;100166.69;5085111;28;20039;-73
2022/12/08 03:56:20;;;;;;;3.83;1.73;;;;;;;4.78;100.00;100170.78;5080648;28;20105;-73
2022/12/08 03:58:46;;;;;;;4.05;2.28;;;;;;;4.95;100.00;100166.94;5088089;28;20056;-73
2022/12/08 04:01:11;;;;;;;2.90;2.03;;;;;;;4.95;100.00;100167.78;5089111;28;20129;-73
2022/12/08 04:03:37;;;;;;;3.13;2.13;;;;;;;4.91;100.00;100161.19;5087754;28;20108;-73
2022/12/08 04:06:02;;;;;;;3.35;2.13;;;;;;;4.87;100.00;100158.97;5086496;28;20031;-73
2022/12/08 04:08:28;;;;;;;3.92;1.77;;;;;;;4.86;100.00;100162.47;5083377;28;20128;-73
2022/12/08 04:10:53;;;;;;;2.80;1.35;;;;;;;4.94;100.00;100170.47;5087290;28;20044;-73
2022/12/08 04:13:19;;;;;;;2.13;1.10;;;;;;;5.03;100.00;100168.97;5085102;28;20025;-73
2022/12/08 04:15:45;;;;;;;2.05;1.20;;;;;;;5.04;100.00;100170.59;5086360;28;20507;-73
2022/12/08 04:18:11;;;;;;;3.70;1.50;;;;;;;5.03;100.00;100166.38;5088713;28;20035;-73
2022/12/08 04:20:44;;;;;;;1.58;0.90;;;;;;;5.03;100.00;100158.63;5086254;28;20032;-73
2022/12/08 04:23:10;;;;;;;2.00;1.10;;;;;;;5.02;100.00;100147.47;5085369;28;20121;-73
2022/12/08 04:25:36;;;;;;;3.03;1.10;;;;;;;5.04;100.00;100155.09;5086922;28;20024;-73
2022/12/08 04:28:02;;;;;;;2.88;1.10;;;;;;;5.01;100.00;100153.59;5085781;28;20036;-73
2022/12/08 04:30:28;;;;;;;1.80;0.82;;;;;;;4.98;100.00;100152.06;5085271;28;20047;-74
2022/12/08 04:32:54;;;;;;;1.85;1.30;;;;;;;4.96;100.00;100155.69;5087876;28;20032;-73
2022/12/08 04:35:19;;;;;;;4.22;1.92;;;;;;;4.91;100.00;100156.03;5081602;28;20105;-74
2022/12/08 04:37:44;;;;;;;2.45;0.70;;;;;;;4.88;100.00;100156.25;5086012;28;20021;-73
2022/12/08 04:40:11;;;;;;;1.77;1.20;;;;;;;4.86;100.00;100152.16;5087288;28;20040;-73
2022/12/08 04:42:37;;;;;;;2.78;1.23;;;;;;;4.85;100.00;100161.66;5085412;28;20471;-73
2022/12/08 04:45:03;;;;;;;1.92;1.27;;;;;;;4.84;100.00;100157.44;5080820;28;20060;-73
2022/12/08 04:47:29;;;;;;;1.45;1.00;;;;;;;4.85;100.00;100160.84;5085695;28;20024;-73
2022/12/08 04:49:54;;;;;;;1.80;1.15;;;;;;;4.84;100.00;100160.00;5085067;28;20135;-73
2022/12/08 04:52:20;;;;;;;2.50;1.45;;;;;;;4.85;100.00;100163.41;5084085;28;20044;-73
2022/12/08 04:54:45;;;;;;;1.73;1.25;;;;;;;4.82;100.00;100156.72;5089600;28;20024;-73
2022/12/08 04:57:11;;;;;;;2.92;1.63;;;;;;;4.83;100.00;100154.97;5088479;28;20463;-74
2022/12/08 04:59:36;;;;;;;1.77;1.20;;;;;;;4.84;100.00;100161.78;5086802;28;20036;-73
2022/12/08 05:02:02;;;;;;;2.35;1.30;;;;;;;4.83;100.00;100153.19;5091503;28;20479;-73
2022/12/08 05:04:27;;;;;;;2.10;1.10;;;;;;;4.82;100.00;100150.72;5091967;28;20441;-73
2022/12/08 05:06:53;;;;;;;1.60;1.15;;;;;;;4.82;100.00;100148.97;5093613;28;20044;-74
2022/12/08 05:09:18;;;;;;;4.05;1.60;;;;;;;4.85;100.00;100156.50;5089487;28;20032;-73
2022/12/08 05:11:44;;;;;;;2.30;1.33;;;;;;;4.93;100.00;100146.41;5093247;28;20085;-74
2022/12/08 05:14:11;;;;;;;2.63;1.48;;;;;;;4.95;100.00;100147.13;5088695;28;20553;-74
2022/12/08 05:16:38;;;;;;;1.20;0.68;;;;;;;4.97;100.00;100144.41;5091780;28;20028;-73
2022/12/08 05:19:03;;;;;;;3.97;1.08;;;;;;;5.02;100.00;100144.06;5086118;28;20039;-73
2022/12/08 05:21:29;;;;;;;1.40;0.70;;;;;;;5.06;100.00;100137.75;5087001;28;20047;-74
2022/12/08 05:23:54;;;;;;;2.53;1.00;;;;;;;5.08;100.00;100141.03;5088938;28;20109;-73
2022/12/08 05:26:20;;;;;;;2.40;0.90;;;;;;;5.05;100.00;100128.34;5089915;28;20044;-74
2022/12/08 05:28:45;;;;;;;1.60;0.90;;;;;;;5.02;100.00;100131.16;5086048;28;20393;-73
2022/12/08 05:31:12;;;;;;;3.90;0.85;;;;;;;4.98;100.00;100130.56;5093218;28;20479;-73
2022/12/08 05:33:39;;;;;;;1.98;1.23;;;;;;;4.95;100.00;100118.72;5087027;28;20025;-73
2022/12/08 05:36:04;;;;;;;2.80;0.90;;;;;;;4.94;100.00;100127.41;5086094;28;20040;-73
2022/12/08 05:38:30;;;;;;;1.40;0.93;;;;;;;4.93;100.00;100125.75;5090015;28;20036;-74
2022/12/08 05:40:55;;;;;;;2.80;1.50;;;;;;;4.91;100.00;100122.47;5091231;28;20080;-73
2022/12/08 05:43:21;;;;;;;2.63;0.90;;;;;;;4.93;100.00;100122.34;5089779;28;20055;-73
2022/12/08 05:45:46;;;;;;;2.25;1.80;;;;;;;4.92;100.00;100121.53;5092747;28;20490;-73
2022/12/08 05:48:12;;;;;;;2.67;1.98;;;;;;;4.91;100.00;100130.22;5092922;28;20028;-73
2022/12/08 05:50:37;;;;;;;2.50;1.70;;;;;;;4.91;100.00;100135.38;5089107;28;20111;-73
2022/12/08 05:53:03;;;;;;;2.00;1.60;;;;;;;4.90;100.00;100131.16;5090927;28;20136;-73
2022/12/08 05:55:28;;;;;;;1.65;1.17;;;;;;;4.92;100.00;100131.03;5091924;28;20039;-73
2022/12/08 05:57:54;;;;;;;2.70;1.38;;;;;;;4.89;100.00;100137.25;5086674;28;20020;-74
2022/12/08 06:00:20;;;;;;;2.58;1.10;;;;;;;4.91;100.00;100140.53;5087776;28;20043;-73
2022/12/08 06:02:45;;;;;;;2.95;1.00;;;;;;;4.99;100.00;100138.22;5086152;28;20024;-73
2022/12/08 06:05:11;;;;;;;2.28;1.02;;;;;;;5.07;100.00;100134.22;5089102;28;20391;-73
2022/12/08 06:07:36;;;;;;;1.30;0.80;;;;;;;5.12;100.00;100143.25;5091799;28;20024;-74
2022/12/08 06:10:02;;;;;;;1.58;0.70;;;;;;;5.27;100.00;100141.25;5088145;28;20028;-73
2022/12/08 06:12:28;;;;;;;2.10;0.85;;;;;;;5.33;100.00;100149.34;5083863;28;20412;-73
2022/12/08 06:14:53;;;;;;;1.73;0.65;;;;;;;5.36;100.00;100152.63;5091722;28;20145;-73
2022/12/08 06:17:19;;;;;;;1.50;0.82;;;;;;;5.31;100.00;100145.22;5091413;28;20089;-74
2022/12/08 06:19:44;;;;;;;1.65;0.63;;;;;;;5.26;100.00;100150.75;5088482;28;20038;-73
2022/12/08 06:22:10;;;;;;;1.63;0.70;;;;;;;5.22;100.00;100145.94;5092042;28;20035;-74
2022/12/08 06:24:35;;;;;;;0.98;0.60;;;;;;;5.20;100.00;100145.25;5089510;28;20114;-73
2022/12/08 06:27:01;;;;;;;1.83;0.98;;;;;;;5.19;100.00;100138.44;5083348;28;20047;-73
2022/12/08 06:29:26;;;;;;;2.90;1.65;;;;;;;5.20;100.00;100140.09;5080436;28;20103;-74
2022/12/08 06:31:51;;;;;;;3.60;1.85;;;;;;;5.27;100.00;100139.47;5088485;28;20028;-73
2022/12/08 06:34:17;;;;;;;2.15;1.23;;;;;;;5.37;100.00;100136.19;5086314;28;20058;-73
2022/12/08 06:36:43;;;;;;;2.90;1.20;;;;;;;5.39;100.00;100142.88;5085788;28;20185;-73
2022/12/08 06:39:09;;;;;;;2.28;0.82;;;;;;;5.39;100.00;100145.47;5087224;28;20042;-73
2022/12/08 06:42:42;;;;;;;2.00;1.13;;;;;;;5.39;100.00;100147.22;5087510;28;20031;-73
2022/12/08 06:44:20;;;;;;;2.30;0.88;;;;;;;5.37;100.00;100152.50;5088283;28;20502;-74
2022/12/08 06:46:46;;;;;;;3.55;1.20;;;;;;;5.35;100.00;100151.81;5086346;28;20067;-73
2022/12/08 06:49:11;;;;;;;2.20;1.50;;;;;;;5.33;100.00;100146.75;5088950;28;20028;-74
2022/12/08 06:51:37;;;;;;;2.20;1.33;;;;;;;5.34;100.00;100147.56;5088516;28;20066;-74
2022/12/08 06:54:02;;;;;;;2.15;1.42;;;;;;;5.34;100.00;100137.25;5084585;28;20097;-74
2022/12/08 06:56:28;;;;;;;3.88;2.42;;;;;;;5.33;100.00;100145.94;5090224;28;20260;-73
2022/12/08 06:58:54;;;;;;;3.75;2.72;;;;;;;5.33;100.00;100145.94;5091206;28;20119;-74
2022/12/08 07:01:20;;;;;;;3.90;2.55;;;;;;;5.35;100.00;100149.22;5090486;28;20509;-74
2022/12/08 07:03:46;;;;;;;5.88;4.30;;;;;;;5.37;100.00;100143.94;5088868;28;20444;-73
2022/12/08 07:06:19;;;;;;;4.90;2.88;;;;;;;5.46;100.00;100138.88;5089775;28;20071;-73
2022/12/08 07:08:45;;;;;;;3.67;2.75;;;;;;;5.48;100.00;100139.59;5081687;28;20048;-73
2022/12/08 07:11:11;;;;;;;4.72;2.70;;;;;;;5.49;100.00;100140.41;5088262;28;20521;-74
2022/12/08 07:13:37;;;;;;;2.20;1.63;;;;;;;5.47;100.00;100147.47;5085536;28;20498;-73
2022/12/08 07:16:07;;;;;;;2.88;1.10;;;;;;;5.49;100.00;100151.56;5090766;28;20036;-73
2022/12/08 07:18:33;;;;;;;5.00;1.17;;;;;;;5.52;100.00;100146.16;5088849;28;20458;-74
2022/12/08 07:21:07;;;;;;;5.53;1.60;;;;;;;5.53;100.00;100147.81;5087207;28;20198;-73
2022/12/08 07:23:33;;;;;;;7.80;1.85;;;;;;;5.52;100.00;100147.91;5084455;28;20395;-73
2022/12/08 07:26:01;;;;;;;5.75;2.13;;;;;;;5.55;100.00;100145.91;5088060;28;20028;-73
2022/12/08 07:28:28;;;;;;;3.10;1.63;;;;;;;5.55;100.00;100150.25;5085492;28;20049;-74
2022/12/08 07:30:53;;;;;;;4.03;1.25;;;;;;;5.60;100.00;100154.13;5086157;28;20035;-74
2022/12/08 07:33:19;;;;;;;2.35;1.33;;;;;;;5.64;100.00;100152.97;5083816;28;20092;-74
2022/12/08 07:35:53;;;;;;;3.40;1.33;;;;;;;5.66;100.00;100158.00;5083388;28;20398;-74
2022/12/08 07:38:18;;;;;;;5.53;2.03;;;;;;;5.66;100.00;100158.84;5079278;28;20189;-74
2022/12/08 07:40:44;;;;;;;2.35;1.38;;;;;;;5.66;100.00;100153.66;5086093;28;20523;-74
2022/12/08 07:43:09;;;;;;;4.20;1.85;;;;;;;5.67;100.00;100154.47;5089090;28;20502;-74
2022/12/08 07:45:35;;;;;;;5.15;1.92;;;;;;;5.67;100.00;100170.00;5091433;28;20086;-74
2022/12/08 07:48:00;;;;;;;4.22;2.28;;;;;;;5.67;100.00;100170.78;5089259;28;20024;-74
2022/12/08 07:50:26;;;;;;;6.55;3.28;;;;;;;5.74;100.00;100170.31;5087293;28;20494;-74
2022/12/08 07:52:51;;;;;;;7.22;3.88;;;;;;;5.77;100.00;100170.88;5081716;28;20020;-74
2022/12/08 07:55:17;;;;;;;11.07;5.53;;;;;;;5.83;100.00;100179.91;5086893;28;20424;-74
2022/12/08 07:57:42;;;;;;;9.25;5.38;;;;;;;5.89;100.00;100172.53;5087664;28;20094;-75
2022/12/08 08:00:09;;;;;;;6.03;4.13;;;;;;;5.94;100.00;100175.59;5089938;28;20036;-75
2022/12/08 08:02:35;;;;;;;2.72;1.63;;;;;;;5.96;100.00;100181.47;5083761;28;20039;-74
2022/12/08 08:05:01;;;;;;;3.22;1.45;;;;;;;5.97;100.00;100180.50;5089603;28;20502;-74
2022/12/08 08:07:26;;;;;;;3.03;1.25;;;;;;;6.02;100.00;100180.16;5085404;28;20035;-75
2022/12/08 08:09:52;;;;;;;2.03;0.70;;;;;;;6.05;100.00;100179.91;5087927;28;20028;-73
2022/12/08 08:12:17;;;;;;;1.45;0.73;;;;;;;6.09;100.00;100178.72;5082866;28;20577;-75
2022/12/08 08:14:43;;;;;;;1.10;0.63;;;;;;;6.08;100.00;100174.50;5077249;28;20062;-76
2022/12/08 08:17:08;;;;;;;1.50;0.82;;;;;;;6.12;100.00;100175.88;5089660;28;20024;-75
2022/12/08 08:19:34;;;;;;;1.95;1.00;;;;;;;6.22;100.00;100175.94;5089232;28;20099;-76
2022/12/08 08:21:59;;;;;;;2.05;0.82;;;;;;;6.27;100.00;100171.22;5085687;28;20072;-75
2022/12/08 08:24:25;;;;;;;1.92;0.95;;;;;;;6.31;100.00;100170.84;5087172;28;20024;-74
2022/12/08 08:26:52;;;;;;;2.47;0.90;;;;;;;6.37;100.00;100166.13;5079026;28;20043;-75
2022/12/08 08:29:17;;;;;;;1.90;0.90;;;;;;;6.39;100.00;100166.81;5080987;28;20028;-75
2022/12/08 08:31:43;;;;;;;2.30;0.77;;;;;;;6.35;100.00;100166.25;5085909;28;20151;-74
2022/12/08 08:34:08;;;;;;;1.60;0.70;;;;;;;6.35;100.00;100168.84;5089390;28;20081;-74
2022/12/08 08:36:34;;;;;;;5.47;1.10;;;;;;;6.39;100.00;100172.81;5086634;28;20037;-75
2022/12/08 08:39:00;;;;;;;3.35;0.60;;;;;;;6.46;100.00;100167.97;5085887;28;20069;-75
2022/12/08 08:41:25;;;;;;;3.78;1.00;;;;;;;6.50;100.00;100169.38;5078338;28;20160;-74
2022/12/08 08:43:51;;;;;;;2.45;1.10;;;;;;;6.57;100.00;100175.69;5086951;28;20056;-74
2022/12/08 08:46:16;;;;;;;4.38;2.85;;;;;;;6.61;100.00;100174.50;5077183;28;20507;-74
2022/12/08 08:48:41;;;;;;;4.47;2.60;;;;;;;6.64;100.00;100177.63;5083505;28;20024;-73
2022/12/08 08:51:09;;;;;;;3.97;3.38;;;;;;;6.68;100.00;100178.19;5086563;28;20111;-73
2022/12/08 08:53:35;;;;;;;6.22;4.30;;;;;;;6.72;100.00;100181.34;5085388;28;20449;-73
2022/12/08 08:56:01;;;;;;;5.47;4.63;;;;;;;6.76;100.00;100177.56;5089581;28;20486;-73
2022/12/08 08:58:26;;;;;;;4.60;2.88;;;;;;;6.80;100.00;100184.94;5081428;28;20067;-73
2022/12/08 09:00:52;;;;;;;4.68;2.90;;;;;;;6.82;100.00;100180.47;5085547;28;20379;-75
2022/12/08 09:03:17;;;;;;;5.05;2.05;;;;;;;6.85;100.00;100180.22;5081793;28;20028;-74
2022/12/08 09:05:43;;;;;;;3.00;1.92;;;;;;;6.91;100.00;100169.34;5077065;28;20078;-73
2022/12/08 09:08:08;;;;;;;3.42;1.92;;;;;;;6.97;100.00;100174.00;5083578;28;20024;-76
2022/12/08 09:10:34;;;;;;;6.00;1.83;;;;;;;7.06;100.00;100171.59;5078746;28;20493;-76
2022/12/08 09:13:01;;;;;;;3.20;1.80;;;;;;;7.15;100.00;100170.81;5087926;28;20058;-76
2022/12/08 09:15:26;;;;;;;7.13;2.85;;;;;;;7.12;100.00;100163.28;5091810;28;20441;-77
2022/12/08 09:17:52;;;;;;;6.53;3.10;;;;;;;7.03;100.00;100151.97;5084176;28;20028;-75
2022/12/08 09:20:17;;;;;;;7.35;2.58;;;;;;;6.97;100.00;100165.44;5077182;28;20431;-77
2022/12/08 09:22:43;;;;;;;3.08;1.90;;;;;;;6.92;100.00;100163.22;5088150;28;20016;-76
2022/12/08 09:25:08;;;;;;;4.68;2.20;;;;;;;6.91;100.00;100165.94;5076685;28;20044;-77
2022/12/08 09:27:34;;;;;;;2.78;1.30;;;;;;;6.96;100.00;100166.38;5075818;28;20107;-76
2022/12/08 09:29:59;;;;;;;4.07;1.70;;;;;;;7.03;100.00;100162.31;5089157;28;20131;-76
2022/12/08 09:32:25;;;;;;;4.38;1.92;;;;;;;7.12;100.00;100160.69;5088605;28;20104;-76
2022/12/08 09:34:50;;;;;;;4.13;1.77;;;;;;;7.15;100.00;100155.25;5087002;28;20032;-75
2022/12/08 09:37:16;;;;;;;3.85;1.60;;;;;;;7.16;100.00;100151.72;5077809;28;20078;-75
2022/12/08 09:39:41;;;;;;;8.93;3.75;;;;;;;7.16;100.00;100149.13;5086611;28;20028;-76
2022/12/08 09:42:09;;;;;;;11.25;3.08;;;;;;;7.11;100.00;100139.16;5081924;28;20051;-75
2022/12/08 09:44:58;;;;;;;4.05;1.35;;;;;;;7.14;100.00;100140.66;5084714;28;20039;-75
2022/12/08 09:47:34;;;;;;;2.03;1.05;;;;;;;7.17;100.00;100143.00;5082372;28;20081;-75
2022/12/08 09:50:03;;;;;;;1.70;0.70;;;;;;;7.20;100.00;100140.97;5088807;28;20024;-75
2022/12/08 09:52:39;;;;;;;2.05;0.55;;;;;;;7.25;100.00;100136.22;5094730;28;20506;-74
2022/12/08 09:55:15;;;;;;;1.38;0.52;;;;;;;7.36;100.00;100140.50;5092627;28;20032;-74
2022/12/08 09:57:41;;;;;;;1.42;0.50;;;;;;;7.46;100.00;100138.75;5095666;28;20031;-75
2022/12/08 10:00:11;;;;;;;1.35;0.60;;;;;;;7.56;100.00;100146.56;5088246;28;20098;-75
2022/12/08 10:02:36;;;;;;;1.17;0.50;;;;;;;7.63;100.00;100140.69;5084118;28;20085;-74
2022/12/08 10:05:02;;;;;;;1.08;0.47;;;;;;;7.78;100.00;100140.31;5092085;28;20036;-75
2022/12/08 10:07:47;;;;;;;2.13;0.30;;;;;;;7.79;100.00;100129.78;5086069;28;20033;-74
2022/12/08 10:10:40;;;;;;;0.50;0.20;;;;;;;7.75;100.00;100132.78;5091762;28;20048;-74
2022/12/08 10:13:31;;;;;;;1.05;0.30;;;;;;;7.76;100.00;100124.88;5087740;28;20445;-75
2022/12/08 10:16:30;;;;;;;1.08;0.28;;;;;;;7.78;100.00;100127.34;5087448;28;20036;-74
2022/12/08 10:19:18;;;;;;;1.90;0.60;;;;;;;7.80;100.00;100122.84;5102487;28;20032;-74
2022/12/08 10:21:44;;;;;;;1.13;0.20;;;;;;;7.92;100.00;100117.38;5080879;28;20371;-74
2022/12/08 10:24:31;;;;;;;1.02;0.20;;;;;;;8.13;99.19;100116.41;5089485;28;20138;-75
2022/12/08 10:26:57;;;;;;;1.05;0.20;;;;;;;8.44;97.23;100114.53;5091967;28;20040;-75
2022/12/08 10:29:22;;;;;;;1.30;0.30;;;;;;;8.56;96.38;100108.19;5091328;28;20459;-75
2022/12/08 10:31:48;;;;;;;0.95;0.20;;;;;;;8.59;96.44;100105.31;5089003;28;20459;-75
2022/12/08 10:34:23;;;;;;;1.05;0.25;;;;;;;8.72;94.98;100103.22;5085628;28;20070;-75
2022/12/08 10:36:57;;;;;;;2.35;0.10;;;;;;;8.71;94.47;100104.19;5081986;28;20071;-74
2022/12/08 10:39:37;;;;;;;0.63;0.20;;;;;;;8.65;93.79;100096.97;5088110;28;20146;-74
2022/12/08 10:42:12;;;;;;;0.70;0.20;;;;;;;8.63;95.88;100093.69;5091473;28;20438;-75
2022/12/08 10:44:54;;;;;;;0.43;0.20;;;;;;;8.60;97.04;100093.97;5083336;28;20028;-75
2022/12/08 10:47:21;;;;;;;0.60;0.20;;;;;;;8.66;95.84;100093.41;5084512;28;20032;-75
2022/12/08 10:49:47;;;;;;;1.02;0.20;;;;;;;8.66;94.22;100088.22;5091256;28;20127;-75
2022/12/08 10:52:22;;;;;;;1.08;0.20;;;;;;;8.63;91.84;100085.91;5087165;28;20036;-75
2022/12/08 10:54:53;;;;;;;0.93;0.30;;;;;;;8.67;94.26;100078.66;5086933;28;20085;-74
2022/12/08 10:57:22;;;;;;;0.70;0.20;;;;;;;8.76;92.88;100078.63;5082311;28;20036;-75
2022/12/08 10:59:48;;;;;;;0.40;0.10;;;;;;;8.82;92.56;100078.06;5089342;28;20043;-75
2022/12/08 11:02:19;;;;;;;1.02;0.20;;;;;;;8.93;92.91;100080.47;5085616;28;20036;-75
2022/12/08 11:04:45;;;;;;;1.05;0.30;;;;;;;8.94;93.88;100068.31;5086605;28;20028;-75
2022/12/08 11:07:21;;;;;;;0.80;0.20;;;;;;;8.86;94.15;100066.41;5088749;28;20077;-75
2022/12/08 11:09:51;;;;;;;0.98;0.22;;;;;;;8.80;95.65;100071.38;5088963;28;20036;-75
2022/12/08 11:12:21;;;;;;;0.65;0.20;;;;;;;8.71;96.22;100054.84;5090122;28;20036;-75
2022/12/08 11:14:48;;;;;;;0.60;0.20;;;;;;;8.72;96.57;100060.84;5089224;28;20036;-75
2022/12/08 11:17:20;;;;;;;0.40;0.10;;;;;;;8.73;96.76;100052.09;5088589;28;20426;-75
2022/12/08 11:19:54;;;;;;;1.38;0.30;;;;;;;8.62;96.31;100050.50;5088110;28;20115;-75
2022/12/08 11:22:19;;;;;;;2.85;0.30;;;;;;;8.55;97.25;100059.81;5089260;28;20703;-75
2022/12/08 11:24:55;;;;;;;0.90;0.30;;;;;;;8.47;97.58;100057.94;5090717;28;20035;-75
2022/12/08 11:27:20;;;;;;;0.68;0.30;;;;;;;8.50;97.29;100052.47;5086686;28;20042;-75
2022/12/08 11:29:46;;;;;;;2.70;0.30;;;;;;;8.61;95.70;100051.47;5089459;28;20032;-75
2022/12/08 11:32:12;;;;;;;1.33;0.40;;;;;;;8.69;94.97;100053.34;5087700;28;20035;-75
2022/12/08 11:34:50;;;;;;;3.60;0.30;;;;;;;8.68;94.30;100049.94;5090375;28;20472;-76
2022/12/08 11:37:27;;;;;;;5.22;0.20;;;;;;;8.73;91.90;100052.09;5085912;28;20086;-75